createdAt,value
2018-05-08T00:00:37.570Z,99759.67
2018-05-08T00:02:12.655Z,99763.56
2018-05-08T00:03:47.746Z,99757.54
2018-05-08T00:05:22.902Z,99754.83
2018-05-08T00:06:58.001Z,99755.28
2018-05-08T00:08:35.488Z,99756.76
2018-05-08T00:10:10.644Z,99756.45
2018-05-08T00:11:45.798Z,99755.69
2018-05-08T00:13:21.189Z,99749.55
2018-05-08T00:14:56.231Z,99755.66
2018-05-08T00:16:31.320Z,99750.96
2018-05-08T00:18:06.442Z,99732.30
2018-05-08T00:19:42.881Z,99753.18
2018-05-08T00:21:18.616Z,99753.18
2018-05-08T00:22:54.510Z,99750.81
2018-05-08T00:24:30.370Z,99746.73
2018-05-08T00:26:05.549Z,99747.29
2018-05-08T00:27:40.707Z,99742.88
2018-05-08T00:29:17.335Z,99745.94
2018-05-08T00:30:52.493Z,99748.72
2018-05-08T00:32:27.738Z,99747.45
2018-05-08T00:34:03.775Z,99743.71
2018-05-08T00:35:39.684Z,99744.17
2018-05-08T00:37:14.825Z,99744.91
2018-05-08T00:38:50.670Z,99742.39
2018-05-08T00:40:25.768Z,99739.55
2018-05-08T00:42:00.858Z,99738.73
2018-05-08T00:43:36.675Z,99737.30
2018-05-08T00:45:11.763Z,99738.47
2018-05-08T00:46:46.855Z,99738.12
2018-05-08T00:48:22.712Z,99734.77
2018-05-08T00:49:58.714Z,99730.32
2018-05-08T00:51:33.800Z,99733.77
2018-05-08T00:53:09.713Z,99731.77
2018-05-08T00:55:03.422Z,99726.05
2018-05-08T00:56:38.480Z,99725.87
2018-05-08T00:58:13.589Z,99725.52
2018-05-08T00:59:48.730Z,99729.77
2018-05-08T01:01:23.820Z,99730.85
2018-05-08T01:02:58.911Z,99731.78
2018-05-08T01:04:35.053Z,99732.25
2018-05-08T01:06:10.148Z,99726.42
2018-05-08T01:07:45.284Z,99731.67
2018-05-08T01:09:21.098Z,99730.28
2018-05-08T01:10:56.193Z,99729.32
2018-05-08T01:12:31.291Z,99730.70
2018-05-08T01:14:07.123Z,99728.51
2018-05-08T01:15:42.300Z,99725.46
2018-05-08T01:17:17.387Z,99729.70
2018-05-08T01:18:52.504Z,99723.73
2018-05-08T01:20:28.403Z,99724.45
2018-05-08T01:22:03.472Z,99721.56
2018-05-08T01:23:38.920Z,99720.48
2018-05-08T01:25:15.544Z,99716.12
2018-05-08T01:26:50.636Z,99724.53
2018-05-08T01:28:25.744Z,99723.50
2018-05-08T01:30:02.709Z,99724.50
2018-05-08T01:31:37.836Z,99722.48
2018-05-08T01:33:13.129Z,99722.02
2018-05-08T01:34:48.238Z,99722.14
2018-05-08T01:36:23.349Z,99722.73
2018-05-08T01:37:59.178Z,99724.61
2018-05-08T01:39:34.345Z,99720.72
2018-05-08T01:41:09.454Z,99720.98
2018-05-08T01:42:44.537Z,99719.94
2018-05-08T01:44:20.435Z,99719.44
2018-05-08T01:45:56.954Z,99719.20
2018-05-08T01:47:32.861Z,99715.34
2018-05-08T01:49:07.957Z,99721.82
2018-05-08T01:50:43.045Z,99715.60
2018-05-08T01:52:18.897Z,99717.65
2018-05-08T01:53:53.992Z,99714.33
2018-05-08T01:55:29.843Z,99716.41
2018-05-08T01:57:04.984Z,99699.07
2018-05-08T01:58:40.089Z,99721.91
2018-05-08T02:00:15.188Z,99715.86
2018-05-08T02:01:51.068Z,99711.08
2018-05-08T02:03:26.308Z,99713.70
2018-05-08T02:05:01.391Z,99714.94
2018-05-08T02:06:37.171Z,99708.18
2018-05-08T02:08:12.244Z,99711.66
2018-05-08T02:09:47.639Z,99716.58
2018-05-08T02:11:23.489Z,99711.37
2018-05-08T02:12:58.619Z,99707.48
2018-05-08T02:14:35.141Z,99709.05
2018-05-08T02:16:10.215Z,99709.63
2018-05-08T02:17:45.305Z,99707.62
2018-05-08T02:19:20.436Z,99707.93
2018-05-08T02:20:55.578Z,99703.92
2018-05-08T02:22:30.650Z,99700.02
2018-05-08T02:24:06.455Z,99698.72
2018-05-08T02:25:41.523Z,99702.41
2018-05-08T02:27:16.968Z,99705.30
2018-05-08T02:28:53.470Z,99691.36
2018-05-08T02:30:28.809Z,99690.91
2018-05-08T02:32:03.957Z,99690.39
2018-05-08T02:33:40.355Z,99689.25
2018-05-08T02:35:16.274Z,99692.36
2018-05-08T02:36:51.455Z,99693.98
2018-05-08T02:38:26.612Z,99686.07
2018-05-08T02:40:01.654Z,99691.68
2018-05-08T02:41:37.434Z,99682.40
2018-05-08T02:43:13.247Z,99679.81
2018-05-08T02:44:48.344Z,99686.52
2018-05-08T02:46:25.109Z,99687.41
2018-05-08T02:48:00.206Z,99683.39
2018-05-08T02:49:35.338Z,99688.42
2018-05-08T02:51:11.072Z,99683.34
2018-05-08T02:52:46.141Z,99681.61
2018-05-08T02:54:21.761Z,99682.84
2018-05-08T02:55:58.483Z,99681.61
2018-05-08T02:57:33.522Z,99685.39
2018-05-08T02:59:08.646Z,99689.16
2018-05-08T03:00:43.753Z,99687.25
2018-05-08T03:02:19.737Z,99691.78
2018-05-08T03:03:54.838Z,99692.56
2018-05-08T03:05:29.943Z,99693.59
2018-05-08T03:07:05.000Z,99693.03
2018-05-08T03:08:40.172Z,99693.14
2018-05-08T03:10:15.195Z,99696.60
2018-05-08T03:11:50.234Z,99694.87
2018-05-08T03:13:26.067Z,99694.87
2018-05-08T03:15:01.192Z,99692.75
2018-05-08T03:16:38.226Z,99692.81
2018-05-08T03:18:31.175Z,99695.44
2018-05-08T03:20:06.270Z,99689.34
2018-05-08T03:21:41.341Z,99683.52
2018-05-08T03:23:16.443Z,99685.70
2018-05-08T03:24:51.546Z,99684.55
2018-05-08T03:26:26.627Z,99691.34
2018-05-08T03:28:02.475Z,99691.73
2018-05-08T03:29:37.596Z,99677.15
2018-05-08T03:31:12.705Z,99685.47
2018-05-08T03:32:47.764Z,99686.39
2018-05-08T03:34:22.883Z,99687.95
2018-05-08T03:35:58.688Z,99677.86
2018-05-08T03:37:35.744Z,99679.03
2018-05-08T03:39:10.806Z,99676.72
2018-05-08T03:40:45.892Z,99675.09
2018-05-08T03:42:21.017Z,99668.91
2018-05-08T03:43:57.346Z,99667.84
2018-05-08T03:45:34.659Z,99667.31
2018-05-08T03:47:09.709Z,99663.20
2018-05-08T03:48:44.824Z,99668.97
2018-05-08T03:50:19.939Z,99674.53
2018-05-08T03:51:55.653Z,99672.76
2018-05-08T03:53:30.726Z,99668.83
2018-05-08T03:55:05.852Z,99667.17
2018-05-08T03:56:41.557Z,99661.56
2018-05-08T03:58:16.630Z,99656.89
2018-05-08T03:59:51.734Z,99654.28
2018-05-08T04:01:45.435Z,99654.73
2018-05-08T04:03:38.174Z,99655.88
2018-05-08T04:05:31.039Z,99658.97
2018-05-08T04:07:23.772Z,99656.49
2018-05-08T04:08:58.820Z,99662.78
2018-05-08T04:10:34.686Z,99663.80
2018-05-08T04:12:09.793Z,99661.88
2018-05-08T04:13:44.861Z,99657.75
2018-05-08T04:15:19.950Z,99662.03
2018-05-08T04:16:55.084Z,99659.10
2018-05-08T04:18:30.940Z,99653.55
2018-05-08T04:20:05.994Z,99656.13
2018-05-08T04:21:41.140Z,99653.88
2018-05-08T04:23:16.246Z,99654.49
2018-05-08T04:24:51.357Z,99654.83
2018-05-08T04:26:26.456Z,99657.30
2018-05-08T04:28:01.570Z,99652.61
2018-05-08T04:29:37.452Z,99652.21
2018-05-08T04:31:12.619Z,99646.30
2018-05-08T04:32:48.813Z,99643.45
2018-05-08T04:34:23.894Z,99635.09
2018-05-08T04:35:59.792Z,99639.11
2018-05-08T04:37:41.721Z,99638.27
2018-05-08T04:39:17.814Z,99637.59
2018-05-08T04:41:04.107Z,99635.00
2018-05-08T04:42:39.201Z,99637.61
2018-05-08T04:44:26.873Z,99638.11
2018-05-08T04:46:07.036Z,99639.78
2018-05-08T05:02:34.580Z,99651.84
2018-05-08T12:50:43.581Z,99217.00
2018-05-08T12:52:19.431Z,99226.58
2018-05-08T12:53:54.507Z,99217.34
2018-05-08T12:55:29.668Z,99203.38
2018-05-08T12:57:08.325Z,99207.49
2018-05-08T12:58:43.481Z,99203.12
2018-05-08T13:00:22.289Z,99212.46
2018-05-08T13:01:58.337Z,99204.05
2018-05-08T13:03:35.457Z,99212.73
2018-05-08T13:05:10.643Z,99203.39
2018-05-08T13:11:03.179Z,99201.97
2018-05-08T13:12:45.448Z,99184.19
2018-05-08T13:14:21.294Z,99190.50
2018-05-08T13:15:56.583Z,99188.85
2018-05-08T13:17:34.373Z,99182.38
2018-05-08T13:19:09.445Z,99192.81
2018-05-08T13:20:45.031Z,99182.79
2018-05-08T13:22:23.990Z,99180.33
2018-05-08T13:23:59.209Z,99181.16
2018-05-08T13:25:35.477Z,99173.42
2018-05-08T13:27:11.542Z,99176.07
2018-05-08T13:28:46.707Z,99172.77
2018-05-08T13:30:26.493Z,99173.45
2018-05-08T13:33:51.377Z,99171.64
2018-05-08T13:35:26.587Z,99174.77
2018-05-08T13:37:14.574Z,99167.14
2018-05-08T13:38:55.440Z,99163.96
2018-05-08T13:40:34.707Z,99159.66
2018-05-08T13:42:11.114Z,99161.80
2018-05-08T13:43:47.076Z,99150.27
2018-05-08T13:45:22.169Z,99154.08
2018-05-08T13:47:00.575Z,99152.73
2018-05-08T13:48:36.572Z,99154.79
2018-05-08T13:50:11.686Z,99153.13
2018-05-08T13:51:50.922Z,99153.86
2018-05-08T13:53:26.952Z,99150.25
2018-05-08T13:55:03.557Z,99141.63
2018-05-08T13:56:39.759Z,99148.28
2018-05-08T13:58:16.942Z,99142.48
2018-05-08T13:59:55.226Z,99139.09
2018-05-08T14:01:32.666Z,99139.19
2018-05-08T14:03:08.828Z,99143.42
2018-05-08T14:04:44.417Z,99148.37
2018-05-08T14:06:22.810Z,99146.94
2018-05-08T14:07:59.055Z,99140.89
2018-05-08T14:09:36.755Z,99131.86
2018-05-08T14:13:19.555Z,99132.28
2018-05-08T14:14:55.162Z,99135.88
2018-05-08T14:16:30.327Z,99139.81
2018-05-08T14:20:22.001Z,99136.61
2018-05-08T14:21:58.171Z,99130.63
2018-05-08T14:23:34.076Z,99137.44
2018-05-08T14:25:09.901Z,99132.24
2018-05-08T14:26:46.919Z,99124.06
2018-05-08T14:28:24.899Z,99119.74
2018-05-08T14:30:04.984Z,99119.20
2018-05-08T14:31:41.360Z,99121.06
2018-05-08T14:33:21.185Z,99112.81
2018-05-08T14:34:58.485Z,99113.16
2018-05-08T14:36:35.029Z,99119.42
2018-05-08T14:38:13.786Z,99113.25
2018-05-08T14:39:51.323Z,99105.84
2018-05-08T14:41:27.755Z,99115.09
2018-05-08T14:43:03.106Z,99115.41
2018-05-08T14:44:38.678Z,99111.09
2018-05-08T14:46:14.250Z,99107.18
2018-05-08T14:47:49.493Z,99102.84
2018-05-08T14:49:27.183Z,99100.39
2018-05-08T14:51:02.800Z,99097.50
2018-05-08T14:52:38.175Z,99097.25
2018-05-08T14:54:27.919Z,99101.52
2018-05-08T14:56:05.660Z,99097.48
2018-05-08T14:57:44.622Z,99095.21
2018-05-08T14:59:20.319Z,99102.86
2018-05-08T15:00:55.443Z,99096.77
2018-05-08T15:02:31.469Z,99098.88
2018-05-08T15:04:06.798Z,99097.53
2018-05-08T15:05:41.891Z,99095.59
2018-05-08T15:07:17.028Z,99095.19
2018-05-08T15:08:53.223Z,99107.66
2018-05-08T15:10:28.291Z,99091.35
2018-05-08T15:12:03.363Z,99095.47
2018-05-08T15:13:38.465Z,99084.74
2018-05-08T15:15:14.558Z,99089.07
2018-05-08T15:16:49.621Z,99087.11
2018-05-08T15:18:24.901Z,99082.68
2018-05-08T15:20:01.106Z,99087.45
2018-05-08T15:21:37.040Z,99081.22
2018-05-08T15:23:13.269Z,99094.84
2018-05-08T15:24:49.605Z,99082.89
2018-05-08T15:26:25.582Z,99081.86
2018-05-08T15:28:01.762Z,99078.44
2018-05-08T15:29:36.906Z,99086.39
2018-05-08T15:31:12.773Z,99082.06
2018-05-08T15:32:47.829Z,99083.19
2018-05-08T15:34:24.231Z,99074.52
2018-05-08T15:35:59.301Z,99077.20
2018-05-08T15:37:34.415Z,99073.50
2018-05-08T15:39:09.479Z,99076.08
2018-05-08T15:40:44.708Z,99074.94
2018-05-08T15:42:19.898Z,99075.45
2018-05-08T15:43:54.981Z,99073.08
2018-05-08T15:45:30.833Z,99063.37
2018-05-08T15:47:06.703Z,99062.34
2018-05-08T15:48:41.806Z,99067.00
2018-05-08T15:50:17.078Z,99065.13
2018-05-08T15:51:52.917Z,99065.23
2018-05-08T15:53:28.084Z,99053.97
2018-05-08T15:55:06.571Z,99057.72
2018-05-08T15:56:42.779Z,99060.80
2018-05-08T15:58:19.599Z,99058.41
2018-05-08T15:59:54.673Z,99057.70
2018-05-08T16:01:33.512Z,99067.51
2018-05-08T16:03:10.112Z,99055.73
2018-05-08T16:04:45.360Z,99065.05
2018-05-08T16:06:21.085Z,99056.20
2018-05-08T16:08:07.692Z,99058.05
2018-05-08T16:09:44.035Z,99056.83
2018-05-08T16:11:19.294Z,99052.17
2018-05-08T16:12:58.753Z,99056.27
2018-05-08T16:14:34.165Z,99057.52
2018-05-08T16:16:14.081Z,99052.17
2018-05-08T16:17:53.940Z,99039.57
2018-05-08T16:19:29.184Z,99043.30
2018-05-08T16:21:04.377Z,99046.17
2018-05-08T16:22:40.042Z,99050.28
2018-05-08T16:24:15.266Z,99055.44
2018-05-08T16:25:52.324Z,99039.02
2018-05-08T16:27:28.658Z,99036.90
2018-05-08T16:29:03.972Z,99027.91
2018-05-08T16:30:40.551Z,99037.61
2018-05-08T16:32:15.676Z,99041.94
2018-05-08T16:33:51.991Z,99041.94
2018-05-08T16:35:27.019Z,99041.01
2018-05-08T16:37:02.643Z,99030.97
2018-05-08T16:38:38.463Z,99044.47
2018-05-08T16:40:13.587Z,99040.11
2018-05-08T16:41:49.414Z,99046.83
2018-05-08T16:43:24.791Z,99036.86
2018-05-08T16:44:59.887Z,99037.17
2018-05-08T16:46:34.976Z,99048.05
2018-05-08T16:48:10.111Z,99032.98
2018-05-08T16:49:45.107Z,99032.63
2018-05-08T16:51:20.222Z,99036.96
2018-05-08T16:52:56.043Z,99034.73
2018-05-08T16:54:31.170Z,99034.44
2018-05-08T16:56:07.004Z,99034.38
2018-05-08T16:57:42.087Z,99031.14
2018-05-08T16:59:31.521Z,99040.07
2018-05-08T17:01:06.593Z,99032.78
2018-05-08T17:02:41.678Z,99033.23
2018-05-08T17:04:17.548Z,99026.36
2018-05-08T17:05:54.331Z,99042.92
2018-05-08T17:07:29.437Z,99031.18
2018-05-08T17:09:04.540Z,99039.77
2018-05-08T17:10:44.180Z,99036.77
2018-05-08T17:12:20.977Z,99040.25
2018-05-08T17:13:56.780Z,99040.16
2018-05-08T17:15:32.409Z,99036.50
2018-05-08T17:17:09.070Z,99032.30
2018-05-08T17:18:47.927Z,99037.08
2018-05-08T17:20:27.837Z,99032.42
2018-05-08T17:22:03.660Z,99031.84
2018-05-08T17:23:39.052Z,99031.30
2018-05-08T17:25:17.880Z,99027.93
2018-05-08T17:26:53.926Z,99036.53
2018-05-08T17:28:36.868Z,99036.70
2018-05-08T17:30:12.315Z,99033.95
2018-05-08T17:31:48.205Z,99029.28
2018-05-08T17:33:25.195Z,99037.84
2018-05-08T17:35:00.909Z,99037.67
2018-05-08T17:37:04.794Z,99042.42
2018-05-08T17:38:41.886Z,99039.77
2018-05-08T17:40:18.237Z,99044.14
2018-05-08T17:41:54.470Z,99043.98
2018-05-08T17:43:31.124Z,99041.30
2018-05-08T17:45:06.517Z,99039.92
2018-05-08T17:46:42.112Z,99040.78
2018-05-08T17:48:17.784Z,99035.79
2018-05-08T17:49:54.804Z,99040.66
2018-05-08T17:51:30.615Z,99040.20
2018-05-08T17:53:06.354Z,99039.00
2018-05-08T17:54:42.053Z,99035.91
2018-05-08T17:58:19.443Z,99030.88
2018-05-08T17:59:54.843Z,99032.82
2018-05-08T18:01:30.358Z,99033.53
2018-05-08T18:03:08.696Z,99038.63
2018-05-08T18:04:49.323Z,99032.66
2018-05-08T18:06:28.507Z,99032.33
2018-05-08T18:08:03.990Z,99035.23
2018-05-08T18:09:39.640Z,99036.94
2018-05-08T18:11:16.296Z,99040.48
2018-05-08T18:12:52.053Z,99034.64
2018-05-08T18:14:27.872Z,99033.03
2018-05-08T18:16:03.377Z,99037.69
2018-05-08T18:17:39.101Z,99036.35
2018-05-08T18:19:14.084Z,99035.66
2018-05-08T18:20:49.155Z,99041.55
2018-05-08T18:22:25.180Z,99041.17
2018-05-08T18:24:00.479Z,99036.62
2018-05-08T18:25:35.740Z,99040.42
2018-05-08T18:27:11.189Z,99036.89
2018-05-08T18:28:47.108Z,99035.84
2018-05-08T18:30:22.541Z,99035.28
2018-05-08T18:31:58.484Z,99042.49
2018-05-08T18:33:34.593Z,99039.52
2018-05-08T18:35:11.826Z,99040.20
2018-05-08T18:36:48.166Z,99046.15
2018-05-08T18:38:25.265Z,99041.59
2018-05-08T18:40:00.522Z,99046.28
2018-05-08T18:41:36.312Z,99050.82
2018-05-08T18:43:12.676Z,99048.70
2018-05-08T18:44:47.963Z,99050.31
2018-05-08T18:46:25.984Z,99050.66
2018-05-08T18:48:01.122Z,99049.91
2018-05-08T18:49:36.774Z,99052.98
2018-05-08T18:51:12.319Z,99052.88
2018-05-08T18:52:47.657Z,99050.25
2018-05-08T18:54:24.377Z,99048.47
2018-05-08T18:55:59.467Z,99056.00
2018-05-08T18:57:34.941Z,99053.27
2018-05-08T18:59:10.048Z,99055.73
2018-05-08T19:00:52.182Z,99053.34
2018-05-08T19:02:27.229Z,99060.94
2018-05-08T19:04:02.331Z,99059.98
2018-05-08T19:05:37.420Z,99064.13
2018-05-08T19:07:12.485Z,99056.41
2018-05-08T19:08:47.533Z,99065.82
2018-05-08T19:10:22.971Z,99067.02
2018-05-08T19:11:58.271Z,99066.86
2018-05-08T19:13:33.951Z,99069.81
2018-05-08T19:15:15.168Z,99068.41
2018-05-08T19:16:50.381Z,99063.06
2018-05-08T19:18:30.855Z,99069.30
2018-05-08T19:20:06.342Z,99068.56
2018-05-08T19:21:41.457Z,99073.23
2018-05-08T19:23:16.512Z,99068.89
2018-05-08T19:24:51.899Z,99074.21
2018-05-08T19:26:27.040Z,99073.05
2018-05-08T19:28:07.475Z,99072.50
2018-05-08T19:29:48.016Z,99071.42
2018-05-08T19:31:23.840Z,99078.31
2018-05-08T19:32:58.944Z,99074.33
2018-05-08T19:34:39.352Z,99077.83
2018-05-08T19:36:19.980Z,99074.67
2018-05-08T19:38:00.545Z,99071.10
2018-05-08T19:39:35.612Z,99075.95
2018-05-08T19:41:10.688Z,99072.55
2018-05-08T19:42:45.756Z,99075.45
2018-05-08T19:44:20.859Z,99070.87
2018-05-08T19:45:56.419Z,99069.80
2018-05-08T19:47:31.479Z,99070.21
2018-05-08T19:49:06.950Z,99068.89
2018-05-08T19:50:42.111Z,99061.83
2018-05-08T19:52:17.182Z,99068.21
2018-05-08T19:53:52.951Z,99068.05
2018-05-08T19:55:28.833Z,99070.05
2018-05-08T19:57:03.880Z,99068.84
2018-05-08T19:58:38.952Z,99069.44
2018-05-08T20:00:14.000Z,99069.27
2018-05-08T20:01:49.111Z,99064.20
2018-05-08T20:03:25.701Z,99069.49
2018-05-08T20:05:00.817Z,99070.06
2018-05-08T20:06:35.907Z,99065.67
2018-05-08T20:08:11.005Z,99060.02
2018-05-08T20:09:46.882Z,99060.76
2018-05-08T20:11:21.959Z,99063.00
2018-05-08T20:12:57.778Z,99065.88
2018-05-08T20:14:32.867Z,99064.14
2018-05-08T20:16:07.961Z,99062.05
2018-05-08T20:17:43.042Z,99070.05
2018-05-08T20:19:18.116Z,99060.34
2018-05-08T20:20:54.817Z,99065.55
2018-05-08T20:22:29.878Z,99066.10
2018-05-08T20:24:04.963Z,99058.77
2018-05-08T20:25:40.846Z,99060.34
2018-05-08T20:27:15.910Z,99060.15
2018-05-08T20:28:52.156Z,99060.15
2018-05-08T20:30:27.316Z,99051.48
2018-05-08T20:32:02.369Z,99054.45
2018-05-08T20:33:38.212Z,99051.17
2018-05-08T20:35:13.280Z,99053.78
2018-05-08T20:36:48.388Z,99055.22
2018-05-08T20:38:24.230Z,99061.38
2018-05-08T20:39:59.316Z,99059.20
2018-05-08T20:41:34.420Z,99059.12
2018-05-08T20:43:09.532Z,99055.52
2018-05-08T20:44:44.609Z,99057.58
2018-05-08T20:46:19.771Z,99058.30
2018-05-08T20:47:54.863Z,99059.05
2018-05-08T20:49:29.986Z,99058.02
2018-05-08T20:51:05.066Z,99057.19
2018-05-08T20:52:40.143Z,99058.33
2018-05-08T20:54:15.235Z,99055.73
2018-05-08T20:55:50.329Z,99060.75
2018-05-08T20:57:25.412Z,99055.95
2018-05-08T20:59:00.536Z,99057.41
2018-05-08T21:00:35.659Z,99055.58
2018-05-08T21:02:10.764Z,99058.78
2018-05-08T21:03:45.840Z,99057.50
2018-05-08T21:05:20.963Z,99063.61
2018-05-08T21:06:56.019Z,99052.67
2018-05-08T21:08:31.141Z,99057.59
2018-05-08T21:10:06.219Z,99058.00
2018-05-08T21:11:41.291Z,99060.48
2018-05-08T21:13:16.367Z,99057.27
2018-05-08T21:14:52.243Z,99055.15
2018-05-08T21:16:27.360Z,99058.42
2018-05-08T21:18:02.460Z,99059.81
2018-05-08T21:19:37.490Z,99055.65
2018-05-08T21:21:12.587Z,99060.04
2018-05-08T21:22:47.692Z,99058.88
2018-05-08T21:24:22.788Z,99057.86
2018-05-08T21:25:57.852Z,99056.34
2018-05-08T21:27:38.325Z,99056.26
2018-05-08T21:29:18.794Z,99058.00
2018-05-08T21:30:59.289Z,99059.50
2018-05-08T21:32:34.344Z,99060.80
2018-05-08T21:34:09.446Z,99053.31
2018-05-08T21:35:44.519Z,99055.90
2018-05-08T21:37:19.600Z,99062.00
2018-05-08T21:38:54.655Z,99059.04
2018-05-08T21:40:29.723Z,99056.84
2018-05-08T21:42:04.778Z,99060.59
2018-05-08T21:43:39.886Z,99059.62
2018-05-08T21:45:15.716Z,99057.08
2018-05-08T21:46:50.941Z,99058.14
2018-05-08T21:48:26.092Z,99057.23
2018-05-08T21:50:01.184Z,99060.78
2018-05-08T21:51:36.337Z,99067.56
2018-05-08T21:53:11.421Z,99066.72
2018-05-08T21:54:46.463Z,99063.56
2018-05-08T21:56:21.552Z,99064.30
2018-05-08T21:57:56.655Z,99062.91
2018-05-08T21:59:31.712Z,99064.02
2018-05-08T22:01:07.520Z,99063.14
2018-05-08T22:02:42.586Z,99058.52
2018-05-08T22:04:18.456Z,99064.84
2018-05-08T22:05:54.271Z,99061.72
2018-05-08T22:07:29.340Z,99067.84
2018-05-08T22:09:04.415Z,99061.80
2018-05-08T22:10:39.513Z,99059.16
2018-05-08T22:12:14.589Z,99062.61
2018-05-08T22:13:49.639Z,99071.08
2018-05-08T22:15:25.387Z,99063.99
2018-05-08T22:17:00.475Z,99066.28
2018-05-08T22:18:36.296Z,99069.70
2018-05-08T22:20:12.300Z,99071.84
2018-05-08T22:21:47.369Z,99069.86
2018-05-08T22:23:22.518Z,99069.23
2018-05-08T22:24:57.589Z,99069.95
2018-05-08T22:26:32.674Z,99075.48
2018-05-08T22:28:08.097Z,99076.05
2018-05-08T22:29:43.933Z,99076.41
2018-05-08T22:31:18.988Z,99079.36
2018-05-08T22:32:54.036Z,99079.27
2018-05-08T22:34:29.143Z,99083.25
2018-05-08T22:36:04.212Z,99084.78
2018-05-08T22:37:39.266Z,99085.95
2018-05-08T22:39:14.373Z,99078.59
